Time;durP1;ratioP1;P1;durP2;ratioP2;P2;SDS_P1;SDS_P2;PMS_P1;PMS_P2;Temp;Humidity;BMP_temperature;BMP_pressure;BME280_temperature;BME280_humidity;BME280_pressure;Samples;Min_cycle;Max_cycle;Signal;HPM_P1;HPM_P2
2021/05/17 00:00:12;;;;;;;2.75;0.75;;;7.30;99.90;;;;;;5118631;28;20068;-67
2021/05/17 00:02:40;;;;;;;6.15;0.70;;;7.40;99.90;;;;;;5119313;28;20023;-67
2021/05/17 00:05:09;;;;;;;1.17;0.55;;;7.30;99.90;;;;;;5118449;28;20446;-67
2021/05/17 00:07:37;;;;;;;2.10;0.70;;;7.30;99.90;;;;;;5119022;28;20027;-66
2021/05/17 00:10:06;;;;;;;2.92;0.90;;;7.30;99.90;;;;;;5118405;28;20027;-67
2021/05/17 00:12:33;;;;;;;6.07;0.95;;;7.40;99.90;;;;;;5117752;28;20016;-66
2021/05/17 00:15:02;;;;;;;2.40;1.27;;;7.40;99.90;;;;;;5117451;28;20012;-67
2021/05/17 00:17:30;;;;;;;1.20;0.63;;;7.40;99.90;;;;;;5099363;28;20433;-67
2021/05/17 00:19:58;;;;;;;3.45;1.55;;;7.30;99.90;;;;;;5117359;28;20030;-67
2021/05/17 00:22:27;;;;;;;2.20;0.75;;;7.30;99.90;;;;;;5117535;28;20061;-67
2021/05/17 00:24:54;;;;;;;2.70;0.82;;;7.40;99.90;;;;;;5118250;28;20107;-67
2021/05/17 00:27:22;;;;;;;2.58;0.80;;;7.40;99.90;;;;;;5100296;28;20415;-67
2021/05/17 00:29:51;;;;;;;2.83;1.00;;;7.40;99.90;;;;;;5118128;28;20323;-67
2021/05/17 00:32:19;;;;;;;1.20;0.90;;;7.50;99.90;;;;;;5118698;28;20300;-67
2021/05/17 00:34:48;;;;;;;1.55;0.70;;;7.50;99.90;;;;;;5118070;28;20019;-66
2021/05/17 00:37:15;;;;;;;2.05;0.70;;;7.50;99.90;;;;;;5118782;28;20024;-67
2021/05/17 00:39:43;;;;;;;2.28;0.65;;;7.50;99.90;;;;;;5118092;28;20030;-67
2021/05/17 00:42:12;;;;;;;3.03;0.70;;;7.50;99.90;;;;;;5099891;28;20062;-66
2021/05/17 00:44:41;;;;;;;4.13;0.60;;;7.50;99.90;;;;;;5118548;28;20031;-67
2021/05/17 00:47:16;;;;;;;3.78;0.68;;;7.50;99.90;;;;;;5118116;28;20024;-67
2021/05/17 00:49:45;;;;;;;1.67;0.60;;;7.40;99.90;;;;;;5117543;28;20423;-67
2021/05/17 00:52:17;;;;;;;1.40;0.55;;;7.30;99.90;;;;;;5117645;28;20097;-67
2021/05/17 00:54:45;;;;;;;1.77;0.47;;;7.30;99.90;;;;;;5117204;28;20051;-66
2021/05/17 00:57:13;;;;;;;2.53;0.70;;;7.20;99.90;;;;;;5117644;28;20407;-67
2021/05/17 00:59:41;;;;;;;2.05;0.70;;;7.20;99.90;;;;;;5098850;28;20031;-67
2021/05/17 01:02:09;;;;;;;2.30;0.75;;;7.10;99.90;;;;;;5116975;28;20027;-67
2021/05/17 01:04:37;;;;;;;3.70;0.60;;;7.00;99.90;;;;;;5117894;28;20035;-66
2021/05/17 01:07:05;;;;;;;5.40;0.82;;;7.00;99.90;;;;;;5118478;28;20457;-66
2021/05/17 01:09:34;;;;;;;1.85;0.70;;;6.90;99.90;;;;;;5117656;28;20368;-66
2021/05/17 01:12:02;;;;;;;1.80;0.88;;;6.90;99.90;;;;;;5119663;28;20016;-67
2021/05/17 01:14:34;;;;;;;3.08;0.65;;;6.80;99.90;;;;;;5121906;28;20488;-66
2021/05/17 01:17:05;;;;;;;3.90;0.60;;;6.80;99.90;;;;;;5122132;28;20476;-66
2021/05/17 01:19:52;;;;;;;1.58;0.65;;;6.70;99.90;;;;;;5122243;28;20022;-67
2021/05/17 01:22:33;;;;;;;3.45;0.80;;;6.60;99.90;;;;;;5121898;28;20024;-66
2021/05/17 01:25:03;;;;;;;0.63;0.40;;;6.50;99.90;;;;;;5121633;28;20043;-66
2021/05/17 01:27:31;;;;;;;1.98;0.75;;;6.40;99.90;;;;;;5103598;28;20379;-66
2021/05/17 01:29:59;;;;;;;2.47;1.08;;;6.40;99.90;;;;;;5121437;28;20073;-66
2021/05/17 01:32:27;;;;;;;6.57;1.00;;;6.30;99.90;;;;;;5121042;28;20016;-67
2021/05/17 01:34:57;;;;;;;2.40;1.08;;;6.30;99.90;;;;;;5121002;28;20315;-66
2021/05/17 01:37:28;;;;;;;7.78;1.10;;;6.30;99.90;;;;;;5120461;28;20339;-66
2021/05/17 01:39:58;;;;;;;3.42;0.85;;;6.20;99.90;;;;;;5120392;28;20023;-66
2021/05/17 01:42:27;;;;;;;0.90;0.60;;;6.20;99.90;;;;;;5102698;28;20023;-66
2021/05/17 01:44:56;;;;;;;2.75;1.00;;;6.20;99.90;;;;;;5121229;28;20117;-66
2021/05/17 01:47:25;;;;;;;2.20;1.05;;;6.10;99.90;;;;;;5103119;28;20019;-66
2021/05/17 01:49:54;;;;;;;4.75;1.65;;;6.10;99.90;;;;;;5120963;28;20043;-66
2021/05/17 01:52:22;;;;;;;5.25;0.90;;;6.10;99.90;;;;;;5121230;28;20399;-66
2021/05/17 01:54:50;;;;;;;2.53;0.93;;;6.00;99.90;;;;;;5102960;28;20016;-67
2021/05/17 01:57:20;;;;;;;6.68;1.08;;;6.00;99.90;;;;;;5102856;28;20107;-67
2021/05/17 01:59:48;;;;;;;3.05;1.00;;;6.00;99.90;;;;;;5120924;28;20027;-66
2021/05/17 02:02:15;;;;;;;1.52;0.82;;;6.00;99.90;;;;;;5103273;28;20035;-66
2021/05/17 02:04:43;;;;;;;1.95;0.80;;;6.10;99.90;;;;;;5120857;28;20020;-67
2021/05/17 02:07:12;;;;;;;6.07;0.80;;;6.10;99.90;;;;;;5121073;28;20027;-66
2021/05/17 02:09:41;;;;;;;2.70;0.80;;;6.10;99.90;;;;;;5120777;28;20338;-66
2021/05/17 02:12:09;;;;;;;4.15;0.90;;;6.00;99.90;;;;;;5120619;28;20020;-66
2021/05/17 02:14:44;;;;;;;2.53;0.90;;;6.00;99.90;;;;;;5119800;28;20048;-67
2021/05/17 02:17:12;;;;;;;1.77;0.90;;;5.90;99.90;;;;;;5101825;28;20023;-66
2021/05/17 02:19:40;;;;;;;2.45;1.20;;;5.90;99.90;;;;;;5119664;28;20045;-66
2021/05/17 02:22:08;;;;;;;5.18;1.20;;;5.90;99.90;;;;;;5119721;27;20044;-66
2021/05/17 02:24:36;;;;;;;1.45;0.70;;;5.90;99.90;;;;;;5119866;28;20069;-67
2021/05/17 02:27:08;;;;;;;4.32;0.88;;;5.90;99.90;;;;;;5120519;28;20353;-66
2021/05/17 02:29:37;;;;;;;1.13;0.68;;;5.90;99.90;;;;;;5120636;28;20023;-66
2021/05/17 02:32:05;;;;;;;1.70;1.02;;;5.80;99.90;;;;;;5102214;28;20080;-66
2021/05/17 02:34:33;;;;;;;3.30;0.95;;;5.80;99.90;;;;;;5120313;28;20066;-66
2021/05/17 02:37:01;;;;;;;1.83;0.98;;;5.80;99.90;;;;;;5120857;28;20016;-66
2021/05/17 02:39:28;;;;;;;2.90;1.85;;;5.80;99.90;;;;;;5102063;28;20319;-66
2021/05/17 02:42:00;;;;;;;4.30;1.30;;;5.80;99.90;;;;;;5102956;28;20065;-66
2021/05/17 02:44:28;;;;;;;3.13;1.60;;;5.90;99.90;;;;;;5120030;28;20023;-66
2021/05/17 02:46:57;;;;;;;2.20;1.23;;;6.00;99.90;;;;;;5102022;28;20082;-66
2021/05/17 02:49:29;;;;;;;6.30;1.30;;;6.00;99.90;;;;;;5101495;28;20111;-67
2021/05/17 02:52:00;;;;;;;3.05;1.50;;;6.00;99.90;;;;;;5120378;28;20023;-66
2021/05/17 02:54:32;;;;;;;3.25;1.00;;;6.00;99.90;;;;;;5118999;28;20427;-66
2021/05/17 02:57:11;;;;;;;3.50;1.40;;;6.00;99.90;;;;;;5100947;28;20053;-66
2021/05/17 02:59:57;;;;;;;3.42;1.40;;;6.00;99.90;;;;;;5118931;28;20446;-66
2021/05/17 03:02:30;;;;;;;4.88;1.30;;;6.10;99.90;;;;;;5100931;28;20031;-66
2021/05/17 03:05:00;;;;;;;2.85;1.20;;;6.10;99.90;;;;;;5119306;28;20019;-66
2021/05/17 03:07:38;;;;;;;10.45;1.50;;;6.10;99.90;;;;;;5119758;28;20068;-66
2021/05/17 03:10:08;;;;;;;2.90;1.02;;;6.10;99.90;;;;;;5119375;28;20019;-66
2021/05/17 03:12:39;;;;;;;2.25;1.08;;;6.10;99.90;;;;;;5119746;28;20292;-66
2021/05/17 03:15:08;;;;;;;2.70;1.05;;;6.20;99.90;;;;;;5119496;28;20023;-66
2021/05/17 03:17:37;;;;;;;6.45;1.13;;;6.20;99.90;;;;;;5101386;28;20024;-66
2021/05/17 03:20:06;;;;;;;2.55;1.10;;;6.20;99.90;;;;;;5119355;28;20062;-66
2021/05/17 03:22:34;;;;;;;3.00;1.10;;;6.20;99.90;;;;;;5101464;28;20024;-66
2021/05/17 03:25:06;;;;;;;3.30;1.50;;;6.20;99.90;;;;;;5101464;28;20084;-66
2021/05/17 03:27:34;;;;;;;2.38;1.00;;;6.20;99.90;;;;;;5119402;28;20445;-66
2021/05/17 03:30:02;;;;;;;1.85;1.08;;;6.20;99.90;;;;;;5119735;28;20040;-66
2021/05/17 03:32:30;;;;;;;2.58;1.10;;;6.30;99.90;;;;;;5101119;28;20031;-67
2021/05/17 03:34:58;;;;;;;2.33;1.20;;;6.30;99.90;;;;;;5099401;28;20440;-67
2021/05/17 03:37:26;;;;;;;4.95;1.60;;;6.40;99.90;;;;;;5118609;28;20088;-67
2021/05/17 03:39:53;;;;;;;3.90;1.20;;;6.40;99.90;;;;;;5118073;28;20026;-67
2021/05/17 03:42:21;;;;;;;2.75;1.13;;;6.50;99.90;;;;;;5099833;28;20483;-67
2021/05/17 03:44:49;;;;;;;4.68;1.40;;;6.50;99.90;;;;;;5118686;28;20152;-67
2021/05/17 03:47:16;;;;;;;3.13;1.00;;;6.50;99.90;;;;;;5119190;28;20023;-67
2021/05/17 03:49:44;;;;;;;4.60;1.40;;;6.60;99.90;;;;;;5118665;28;20048;-67
2021/05/17 03:52:11;;;;;;;2.45;1.00;;;6.60;99.90;;;;;;5119124;28;20102;-67
2021/05/17 03:54:39;;;;;;;3.95;1.35;;;6.70;99.90;;;;;;5100742;28;20020;-67
2021/05/17 03:57:06;;;;;;;1.95;0.98;;;6.80;99.90;;;;;;5119309;28;20046;-67
2021/05/17 03:59:35;;;;;;;3.17;1.75;;;6.80;99.90;;;;;;5118673;28;20069;-67
2021/05/17 04:02:04;;;;;;;2.80;1.30;;;6.90;99.90;;;;;;5118678;28;20020;-67
2021/05/17 04:04:37;;;;;;;2.90;0.93;;;6.90;99.90;;;;;;5119542;28;20338;-67
2021/05/17 04:15:23;;;;;;;5.55;1.10;;;7.00;99.90;;;;;;5117661;28;20027;-67
2021/05/17 04:17:51;;;;;;;7.35;1.27;;;7.10;99.90;;;;;;5117959;28;20069;-67
2021/05/17 04:20:19;;;;;;;4.70;1.23;;;7.00;99.90;;;;;;5117331;28;20031;-67
2021/05/17 04:22:47;;;;;;;3.90;1.30;;;7.10;99.90;;;;;;5117301;28;20318;-67
2021/05/17 04:25:15;;;;;;;5.25;1.55;;;7.10;99.90;;;;;;5117621;28;20077;-67
2021/05/17 04:27:43;;;;;;;2.17;1.27;;;7.20;99.90;;;;;;5118261;28;20055;-67
2021/05/17 04:30:13;;;;;;;5.32;1.10;;;7.20;99.90;;;;;;5118187;28;20034;-67
2021/05/17 04:32:40;;;;;;;3.83;1.20;;;7.30;99.90;;;;;;5118137;28;20069;-67
2021/05/17 04:35:09;;;;;;;4.15;1.35;;;7.30;99.90;;;;;;5118516;28;20020;-67
2021/05/17 04:37:36;;;;;;;2.35;1.23;;;7.40;99.90;;;;;;5118125;28;20069;-68
2021/05/17 04:40:05;;;;;;;3.45;1.38;;;7.50;99.90;;;;;;5118045;28;20034;-67
2021/05/17 04:42:34;;;;;;;3.58;1.50;;;7.60;99.90;;;;;;5118464;28;20039;-67
2021/05/17 04:45:02;;;;;;;2.85;1.73;;;7.70;99.90;;;;;;5117984;28;20027;-67
2021/05/17 04:47:30;;;;;;;4.20;1.27;;;7.80;99.90;;;;;;5118012;28;20020;-67
2021/05/17 04:49:58;;;;;;;2.88;1.50;;;7.90;99.90;;;;;;5117624;28;20398;-67
2021/05/17 04:52:26;;;;;;;4.22;1.50;;;8.00;99.90;;;;;;5117956;28;20072;-67
2021/05/17 04:54:54;;;;;;;3.35;1.27;;;8.10;99.90;;;;;;5117940;28;20012;-67
2021/05/17 04:57:22;;;;;;;3.20;1.60;;;8.20;99.90;;;;;;5117539;28;20018;-67
2021/05/17 04:59:50;;;;;;;2.95;1.42;;;8.30;99.90;;;;;;5098905;28;20106;-67
2021/05/17 05:02:18;;;;;;;3.60;1.45;;;8.40;99.90;;;;;;5117176;28;20020;-67
2021/05/17 05:04:45;;;;;;;3.20;1.50;;;8.50;99.90;;;;;;5117161;28;20020;-68
2021/05/17 05:07:14;;;;;;;5.22;1.40;;;8.60;99.90;;;;;;5099400;28;20130;-68
2021/05/17 05:09:42;;;;;;;3.45;1.60;;;8.70;99.90;;;;;;5117795;28;20080;-67
2021/05/17 05:12:10;;;;;;;2.42;1.40;;;8.80;99.90;;;;;;5117890;28;20016;-68
2021/05/17 05:14:38;;;;;;;3.67;1.40;;;8.90;99.90;;;;;;5117721;28;20020;-68
2021/05/17 05:17:05;;;;;;;7.38;1.35;;;8.90;99.90;;;;;;5118228;28;20023;-68
2021/05/17 05:19:34;;;;;;;2.83;1.13;;;9.10;99.90;;;;;;5099541;28;20019;-68
2021/05/17 05:22:01;;;;;;;5.60;1.38;;;9.20;99.90;;;;;;5118371;28;20403;-69
2021/05/17 05:24:30;;;;;;;3.53;1.42;;;9.30;99.90;;;;;;5117661;28;20024;-72
2021/05/17 05:27:06;;;;;;;2.80;1.23;;;9.40;99.90;;;;;;5099507;28;20019;-69
2021/05/17 05:29:45;;;;;;;4.07;1.52;;;9.60;99.90;;;;;;5099381;28;20361;-69
2021/05/17 05:32:25;;;;;;;4.78;1.42;;;9.80;99.90;;;;;;5118023;28;20024;-70
2021/05/17 05:34:53;;;;;;;3.85;1.40;;;10.00;99.90;;;;;;5098898;28;20054;-72
2021/05/17 05:37:22;;;;;;;4.57;1.35;;;10.10;99.90;;;;;;5098506;28;20032;-70
2021/05/17 05:39:50;;;;;;;2.25;1.33;;;10.30;99.90;;;;;;5116594;28;20073;-69
2021/05/17 05:42:18;;;;;;;11.20;2.00;;;10.40;99.90;;;;;;5116545;28;20407;-69
2021/05/17 05:44:48;;;;;;;3.20;1.17;;;10.50;99.90;;;;;;5115935;28;20408;-69
2021/05/17 05:47:17;;;;;;;3.60;1.30;;;10.60;99.90;;;;;;5099182;28;20043;-68
2021/05/17 05:49:47;;;;;;;4.80;1.20;;;10.60;99.90;;;;;;5116974;28;20040;-68
2021/05/17 05:52:16;;;;;;;5.03;1.30;;;10.70;99.90;;;;;;5117547;28;20069;-68
2021/05/17 05:54:45;;;;;;;2.40;1.20;;;10.70;99.90;;;;;;5117430;28;20024;-69
2021/05/17 05:57:15;;;;;;;3.65;1.38;;;10.70;99.90;;;;;;5100173;28;20318;-70
2021/05/17 05:59:43;;;;;;;2.92;1.25;;;10.70;99.90;;;;;;5102930;28;20016;-69
2021/05/17 06:02:11;;;;;;;2.40;1.23;;;10.80;99.90;;;;;;5121279;28;20098;-71
2021/05/17 06:04:38;;;;;;;3.17;1.20;;;10.80;99.90;;;;;;5102836;28;20019;-69
2021/05/17 06:07:06;;;;;;;2.38;1.30;;;10.80;99.90;;;;;;5102831;28;20031;-69
2021/05/17 06:09:34;;;;;;;4.75;1.40;;;10.80;99.90;;;;;;5120848;28;20020;-69
2021/05/17 06:12:02;;;;;;;4.85;1.42;;;10.80;99.90;;;;;;5121520;28;20015;-69
2021/05/17 06:14:31;;;;;;;2.70;1.27;;;10.80;99.90;;;;;;5102649;28;20020;-69
2021/05/17 06:16:59;;;;;;;3.55;1.55;;;10.70;99.90;;;;;;5119688;28;20106;-69
2021/05/17 06:19:26;;;;;;;2.33;1.30;;;10.70;99.90;;;;;;5119710;28;20023;-69
2021/05/17 06:21:54;;;;;;;3.75;1.55;;;10.70;99.90;;;;;;5119706;28;20100;-69
2021/05/17 06:24:22;;;;;;;2.58;1.30;;;10.60;99.90;;;;;;5120485;28;20403;-69
2021/05/17 06:26:50;;;;;;;2.30;1.20;;;10.60;99.90;;;;;;5120752;28;20084;-69
2021/05/17 06:29:18;;;;;;;3.28;1.30;;;10.60;99.90;;;;;;5120975;28;20026;-69
2021/05/17 06:31:48;;;;;;;3.13;1.27;;;10.60;99.90;;;;;;5120919;28;20051;-68
2021/05/17 06:34:16;;;;;;;3.13;1.52;;;10.60;99.90;;;;;;5120371;28;20043;-69
2021/05/17 06:36:44;;;;;;;8.43;1.50;;;10.60;99.90;;;;;;5102796;28;20016;-67
2021/05/17 06:39:13;;;;;;;3.05;1.30;;;10.60;99.90;;;;;;5120228;28;20031;-67
2021/05/17 06:41:41;;;;;;;2.30;1.50;;;10.70;99.90;;;;;;5120254;28;20407;-67
2021/05/17 06:44:11;;;;;;;3.05;1.38;;;10.70;99.90;;;;;;5121020;28;20035;-68
2021/05/17 06:46:39;;;;;;;3.92;1.60;;;10.70;99.90;;;;;;5120356;28;20080;-67
2021/05/17 06:49:07;;;;;;;4.65;1.48;;;10.80;99.90;;;;;;5120081;28;20035;-67
2021/05/17 06:51:35;;;;;;;3.35;1.90;;;10.70;99.90;;;;;;5119795;28;20050;-67
2021/05/17 06:54:04;;;;;;;3.85;1.60;;;10.80;99.90;;;;;;5120525;28;20020;-67
2021/05/17 06:56:42;;;;;;;5.57;1.60;;;10.80;99.90;;;;;;5119772;28;20047;-67
2021/05/17 06:59:24;;;;;;;3.05;1.50;;;10.90;99.90;;;;;;5119580;28;20334;-67
2021/05/17 07:01:55;;;;;;;3.63;1.63;;;11.00;99.90;;;;;;5119249;28;20024;-67
2021/05/17 07:04:23;;;;;;;2.38;1.63;;;11.20;99.90;;;;;;5118688;28;20019;-68
2021/05/17 07:06:57;;;;;;;3.17;1.70;;;11.30;99.90;;;;;;5120067;28;20388;-68
2021/05/17 07:12:14;;;;;;;3.88;1.70;;;11.60;99.90;;;;;;5120226;28;20411;-68
2021/05/17 07:14:42;;;;;;;4.35;1.77;;;11.80;99.90;;;;;;5119915;28;20019;-67
2021/05/17 07:17:10;;;;;;;3.63;1.50;;;12.10;99.90;;;;;;5119721;28;20324;-68
2021/05/17 07:19:38;;;;;;;4.45;1.90;;;12.40;99.90;;;;;;5119626;28;20011;-67
2021/05/17 07:24:52;;;;;;;3.08;1.50;;;12.80;99.90;;;;;;5119773;28;20034;-67
2021/05/17 07:27:19;;;;;;;5.03;1.45;;;13.00;99.90;;;;;;5120020;28;20020;-67
2021/05/17 07:29:49;;;;;;;4.25;1.52;;;13.00;99.90;;;;;;5119820;28;20019;-66
2021/05/17 07:32:18;;;;;;;3.45;1.63;;;13.10;99.90;;;;;;5119426;28;20292;-67
2021/05/17 07:34:45;;;;;;;3.42;1.77;;;13.00;99.90;;;;;;5118895;28;20016;-67
2021/05/17 07:37:15;;;;;;;2.83;1.75;;;12.90;99.90;;;;;;5118783;28;20024;-68
2021/05/17 07:39:42;;;;;;;3.22;2.50;;;12.80;99.90;;;;;;5118182;28;20038;-68
2021/05/17 07:42:10;;;;;;;5.07;1.85;;;12.70;99.90;;;;;;5100008;28;20062;-68
2021/05/17 07:44:38;;;;;;;5.80;1.70;;;12.70;99.90;;;;;;5100915;28;20107;-68
2021/05/17 07:47:06;;;;;;;4.32;1.70;;;12.60;99.90;;;;;;5119140;28;20034;-68
2021/05/17 07:49:40;;;;;;;4.63;1.83;;;12.60;99.90;;;;;;5100437;28;20030;-68
2021/05/17 07:52:10;;;;;;;3.47;1.95;;;12.60;99.90;;;;;;5119048;28;20036;-67
2021/05/17 07:54:38;;;;;;;4.35;1.77;;;12.60;99.90;;;;;;5119359;28;20410;-67
2021/05/17 07:57:09;;;;;;;3.95;2.00;;;12.60;99.90;;;;;;5100629;28;20338;-68
2021/05/17 07:59:37;;;;;;;3.53;1.38;;;12.60;99.90;;;;;;5119248;28;20527;-67
2021/05/17 08:02:06;;;;;;;3.35;1.95;;;12.60;99.90;;;;;;5119663;28;20347;-68
2021/05/17 08:04:35;;;;;;;2.28;1.40;;;12.80;99.90;;;;;;5118826;28;20020;-68
2021/05/17 08:07:04;;;;;;;3.78;1.90;;;13.10;99.90;;;;;;5118618;28;20019;-68
2021/05/17 08:09:33;;;;;;;3.33;1.63;;;13.30;99.90;;;;;;5118528;28;20024;-68
2021/05/17 08:12:00;;;;;;;2.53;1.30;;;13.70;99.90;;;;;;5119150;28;20052;-68
2021/05/17 08:14:28;;;;;;;4.38;1.80;;;14.10;99.90;;;;;;5117942;28;20018;-68
2021/05/17 08:16:56;;;;;;;4.20;1.60;;;14.40;99.90;;;;;;5118082;28;20020;-67
2021/05/17 08:19:23;;;;;;;4.00;1.92;;;14.80;99.90;;;;;;5117829;28;20073;-67
2021/05/17 08:21:51;;;;;;;2.92;1.30;;;14.90;99.90;;;;;;5117209;28;20031;-67
2021/05/17 08:24:19;;;;;;;2.50;1.27;;;15.10;99.90;;;;;;5117904;28;20073;-67
2021/05/17 08:26:46;;;;;;;6.22;1.90;;;15.20;99.90;;;;;;5118602;28;20047;-68
2021/05/17 08:29:15;;;;;;;5.63;1.30;;;15.30;99.90;;;;;;5118258;28;20443;-67
2021/05/17 08:31:44;;;;;;;5.15;1.15;;;15.40;99.90;;;;;;5118116;28;20019;-67
2021/05/17 08:34:12;;;;;;;2.22;1.20;;;15.50;99.90;;;;;;5118334;28;20016;-67
2021/05/17 08:36:40;;;;;;;3.00;1.23;;;15.50;99.90;;;;;;5118240;28;20374;-68
2021/05/17 08:39:09;;;;;;;3.78;1.30;;;15.60;99.90;;;;;;5118185;28;20076;-68
2021/05/17 08:41:37;;;;;;;1.90;1.08;;;15.50;99.80;;;;;;5100040;28;20415;-68
2021/05/17 08:44:07;;;;;;;2.78;1.17;;;15.50;99.90;;;;;;5118176;28;20031;-68
2021/05/17 08:46:35;;;;;;;3.53;1.20;;;15.50;99.90;;;;;;5118525;28;20133;-69
2021/05/17 08:49:02;;;;;;;5.20;1.38;;;15.50;99.70;;;;;;5117822;28;20326;-68
2021/05/17 08:51:33;;;;;;;2.25;1.30;;;15.40;99.60;;;;;;5117603;28;20036;-68
2021/05/17 08:54:05;;;;;;;3.67;1.38;;;15.10;99.90;;;;;;5117375;28;20016;-67
2021/05/17 08:56:34;;;;;;;6.72;1.90;;;14.60;99.90;;;;;;5117716;28;20028;-67
2021/05/17 08:59:05;;;;;;;3.20;2.15;;;13.90;99.90;;;;;;5098815;28;20024;-68
2021/05/17 09:01:33;;;;;;;6.97;1.92;;;13.30;99.90;;;;;;5098791;28;20057;-68
2021/05/17 09:04:05;;;;;;;2.30;1.30;;;12.90;99.90;;;;;;5098744;28;20092;-68
2021/05/17 09:06:43;;;;;;;1.73;1.05;;;12.50;99.90;;;;;;5117918;28;20349;-68
2021/05/17 09:09:27;;;;;;;2.30;1.50;;;12.30;99.90;;;;;;5117859;28;20028;-68
2021/05/17 09:12:11;;;;;;;4.35;1.48;;;12.30;99.90;;;;;;5118151;28;20034;-68
2021/05/17 09:14:39;;;;;;;4.45;1.95;;;12.40;99.90;;;;;;5117647;28;20103;-68
2021/05/17 09:17:07;;;;;;;2.80;2.08;;;12.50;99.90;;;;;;5117669;28;20026;-68
2021/05/17 09:19:37;;;;;;;1.90;1.10;;;12.70;99.90;;;;;;5117542;28;20055;-68
2021/05/17 09:22:18;;;;;;;1.60;0.90;;;12.90;99.90;;;;;;5117610;28;20028;-68
2021/05/17 09:24:54;;;;;;;3.75;1.17;;;13.00;99.90;;;;;;5117630;28;20028;-68
2021/05/17 09:27:25;;;;;;;;;;;13.20;99.90;;;;;;5118677;28;20387;-67
2021/05/17 09:29:56;;;;;;;2.42;0.80;;;13.30;99.90;;;;;;5117570;28;19994;-68
2021/05/17 09:32:38;;;;;;;2.15;1.00;;;13.50;99.90;;;;;;5118134;28;20016;-68
2021/05/17 09:35:15;;;;;;;1.45;0.73;;;13.50;99.90;;;;;;5120542;28;20016;-68
2021/05/17 09:37:44;;;;;;;1.30;0.75;;;13.60;99.90;;;;;;5120755;28;20016;-68
2021/05/17 09:40:23;;;;;;;2.00;0.82;;;13.60;99.90;;;;;;5102404;28;20032;-68
2021/05/17 09:43:05;;;;;;;4.07;0.90;;;13.70;99.90;;;;;;5102330;28;20023;-68
2021/05/17 09:45:35;;;;;;;7.88;1.15;;;13.80;99.90;;;;;;5121171;28;20030;-67
2021/05/17 09:48:09;;;;;;;3.00;0.98;;;14.00;99.90;;;;;;5121264;28;20020;-68
2021/05/17 09:51:10;;;;;;;3.70;1.30;;;14.20;99.90;;;;;;5120969;28;20039;-68
2021/05/17 09:53:40;;;;;;;3.90;1.27;;;14.40;99.90;;;;;;5120972;28;20024;-69
2021/05/17 09:56:22;;;;;;;5.20;0.93;;;14.60;99.90;;;;;;5121073;28;20023;-68
2021/05/17 09:59:01;;;;;;;2.38;0.82;;;14.80;99.90;;;;;;5121335;28;20016;-67
2021/05/17 10:01:30;;;;;;;3.17;0.75;;;15.10;99.90;;;;;;5120783;28;20028;-67
2021/05/17 10:04:05;;;;;;;2.83;0.68;;;15.40;99.90;;;;;;5120965;28;20051;-67
2021/05/17 10:06:33;;;;;;;2.13;1.40;;;15.50;99.90;;;;;;5102917;28;20429;-67
2021/05/17 10:09:02;;;;;;;1.92;0.88;;;15.60;99.90;;;;;;5121460;28;20106;-68
2021/05/17 10:11:29;;;;;;;3.03;1.02;;;15.60;99.90;;;;;;5120726;28;20315;-68
2021/05/17 10:13:57;;;;;;;3.17;1.00;;;15.60;99.90;;;;;;5120198;28;20323;-67
2021/05/17 10:16:25;;;;;;;6.03;1.38;;;15.60;99.90;;;;;;5119708;28;20034;-68
2021/05/17 10:18:54;;;;;;;1.77;0.90;;;15.60;99.90;;;;;;5119658;28;20319;-68
2021/05/17 10:21:23;;;;;;;4.05;1.10;;;15.80;99.90;;;;;;5119668;28;20106;-68
2021/05/17 10:23:51;;;;;;;4.47;1.00;;;15.90;99.90;;;;;;5120233;28;20028;-68
2021/05/17 10:26:30;;;;;;;2.05;0.82;;;16.20;99.90;;;;;;5120891;28;20031;-68
2021/05/17 10:29:06;;;;;;;2.00;1.00;;;16.40;99.90;;;;;;5120341;28;20322;-70
2021/05/17 10:31:34;;;;;;;1.70;1.00;;;16.60;99.90;;;;;;5120310;28;20102;-68
2021/05/17 10:34:10;;;;;;;7.68;1.75;;;16.90;99.90;;;;;;5120170;28;20027;-68
2021/05/17 10:36:55;;;;;;;1.73;0.90;;;17.00;99.90;;;;;;5102945;28;20041;-67
2021/05/17 10:39:41;;;;;;;4.90;1.15;;;17.10;99.90;;;;;;5120812;28;20024;-68
2021/05/17 10:42:30;;;;;;;3.20;0.82;;;17.10;99.90;;;;;;5120449;28;20026;-68
2021/05/17 10:48:22;;;;;;;2.55;0.70;;;17.20;99.90;;;;;;5120676;28;20088;-68
2021/05/17 10:51:17;;;;;;;1.30;0.88;;;17.20;97.90;;;;;;5119820;28;20071;-67
2021/05/17 10:53:46;;;;;;;3.15;0.73;;;17.30;97.00;;;;;;5119360;28;20028;-68
2021/05/17 10:56:57;;;;;;;1.25;0.65;;;17.30;97.60;;;;;;5100917;28;20068;-67
2021/05/17 11:02:28;;;;;;;2.50;1.00;;;17.60;95.80;;;;;;5119429;28;20034;-67
2021/05/17 11:04:57;;;;;;;2.25;0.70;;;17.40;96.40;;;;;;5100766;28;20030;-69
2021/05/17 11:07:31;;;;;;;1.50;0.70;;;17.30;96.50;;;;;;5101552;28;20047;-69
2021/05/17 11:10:07;;;;;;;2.45;0.80;;;17.10;97.60;;;;;;5119800;28;20015;-68
2021/05/17 11:12:44;;;;;;;2.78;1.05;;;16.90;99.60;;;;;;5101526;28;20111;-68
2021/05/17 11:15:15;;;;;;;1.67;0.70;;;16.70;99.30;;;;;;5101427;28;20031;-68
2021/05/17 11:17:52;;;;;;;1.83;0.65;;;16.50;99.90;;;;;;5101345;28;20023;-68
2021/05/17 11:20:45;;;;;;;0.88;0.40;;;16.30;99.90;;;;;;5119670;28;20058;-68
2021/05/17 11:23:25;;;;;;;2.08;0.95;;;16.40;99.90;;;;;;5101347;28;20027;-71
2021/05/17 11:28:45;;;;;;;0.52;0.40;;;16.70;99.90;;;;;;5119391;28;20032;-68
2021/05/17 11:34:04;;;;;;;2.03;0.60;;;17.20;97.90;;;;;;5118642;28;20032;-69
2021/05/17 11:36:45;;;;;;;1.20;0.50;;;17.20;95.50;;;;;;5099964;28;20016;-69
2021/05/17 11:39:17;;;;;;;2.33;0.70;;;17.10;95.70;;;;;;5118125;28;20495;-69
2021/05/17 11:41:49;;;;;;;1.67;0.60;;;16.90;95.90;;;;;;5099780;28;20031;-68
2021/05/17 11:44:26;;;;;;;1.60;0.47;;;16.80;97.20;;;;;;5099744;28;20102;-69
2021/05/17 11:46:56;;;;;;;2.97;0.50;;;16.80;98.00;;;;;;5118740;28;20022;-69
2021/05/17 11:49:29;;;;;;;3.30;0.50;;;16.90;97.00;;;;;;5118528;28;20031;-69
2021/05/17 11:52:05;;;;;;;1.45;0.50;;;17.10;96.80;;;;;;5118863;28;20023;-69
2021/05/17 11:54:49;;;;;;;1.65;0.60;;;17.30;96.80;;;;;;5119121;28;20016;-69
2021/05/17 11:57:19;;;;;;;3.67;0.70;;;17.50;97.10;;;;;;5118682;28;20364;-68
2021/05/17 11:59:50;;;;;;;2.28;0.73;;;17.70;95.60;;;;;;5118987;28;20024;-68
2021/05/17 12:02:18;;;;;;;2.83;0.55;;;17.70;96.20;;;;;;5118528;28;20022;-69
2021/05/17 12:04:46;;;;;;;1.10;0.60;;;17.70;95.40;;;;;;5118046;28;20045;-68
2021/05/17 12:07:16;;;;;;;1.35;0.60;;;17.60;96.40;;;;;;5118083;28;20019;-68
2021/05/17 12:09:53;;;;;;;4.38;1.20;;;17.40;95.50;;;;;;5117644;28;20068;-68
2021/05/17 12:12:28;;;;;;;3.35;0.90;;;17.10;96.20;;;;;;5117829;28;20019;-71
2021/05/17 12:14:59;;;;;;;0.85;0.60;;;16.90;96.70;;;;;;5117371;28;20068;-69
2021/05/17 12:17:32;;;;;;;1.33;0.70;;;16.60;96.10;;;;;;5117270;28;20023;-68
2021/05/17 12:20:11;;;;;;;1.92;0.75;;;16.40;97.40;;;;;;5117628;28;20024;-68
2021/05/17 12:22:40;;;;;;;2.05;0.90;;;16.10;97.30;;;;;;5117421;28;20020;-69
2021/05/17 12:25:19;;;;;;;1.58;0.60;;;15.90;98.50;;;;;;5117683;28;20024;-69
2021/05/17 12:27:49;;;;;;;3.90;1.27;;;15.80;98.70;;;;;;5117154;28;20023;-69
2021/05/17 12:30:22;;;;;;;1.90;0.77;;;15.80;98.40;;;;;;5116926;28;20024;-69
2021/05/17 12:32:56;;;;;;;6.80;0.93;;;15.90;99.40;;;;;;5117123;28;20419;-68
2021/05/17 12:35:27;;;;;;;2.47;0.75;;;16.10;99.90;;;;;;5118026;28;20323;-68
2021/05/17 12:38:00;;;;;;;3.92;0.90;;;16.40;99.60;;;;;;5117960;28;20023;-68
2021/05/17 12:40:39;;;;;;;2.25;1.08;;;17.10;99.90;;;;;;5118550;28;20056;-69
2021/05/17 12:43:18;;;;;;;3.03;0.60;;;17.90;98.00;;;;;;5117322;28;20024;-69
2021/05/17 12:45:59;;;;;;;2.13;0.60;;;18.90;95.20;;;;;;5117064;28;20023;-69
2021/05/17 12:48:47;;;;;;;2.97;0.70;;;19.60;94.80;;;;;;5117549;28;20318;-68
2021/05/17 12:51:27;;;;;;;1.15;0.70;;;20.00;89.80;;;;;;5116417;28;20047;-68
2021/05/17 12:54:15;;;;;;;1.40;0.88;;;20.00;90.70;;;;;;5117158;28;20096;-69
2021/05/17 12:56:44;;;;;;;2.60;0.93;;;20.00;89.20;;;;;;5117794;28;20024;-68
2021/05/17 12:59:14;;;;;;;0.98;0.50;;;19.80;88.60;;;;;;5116891;28;20015;-67
2021/05/17 13:01:42;;;;;;;1.65;1.00;;;19.60;87.20;;;;;;5116884;28;20030;-67
2021/05/17 13:04:10;;;;;;;1.52;0.60;;;19.40;87.30;;;;;;5117334;28;20044;-67
2021/05/17 13:06:40;;;;;;;1.33;0.50;;;19.20;88.10;;;;;;5119003;28;20072;-67
2021/05/17 13:09:20;;;;;;;1.85;0.52;;;18.90;86.80;;;;;;5122156;28;20032;-67
2021/05/17 13:11:56;;;;;;;0.85;0.57;;;18.60;88.20;;;;;;5103883;28;20030;-67
2021/05/17 13:14:24;;;;;;;1.65;0.30;;;18.20;89.80;;;;;;5122392;28;20023;-67
2021/05/17 13:16:55;;;;;;;5.40;0.60;;;17.60;89.40;;;;;;5121068;28;20052;-67
2021/05/17 13:30:44;;;;;;;2.75;0.30;;;13.40;99.90;;;;;;5121378;28;20086;-67
2021/05/17 13:33:38;;;;;;;1.02;0.32;;;13.20;99.90;;;;;;5120779;28;20051;-67
2021/05/17 13:36:08;;;;;;;0.10;0.10;;;13.30;99.90;;;;;;5116980;28;20036;-67
2021/05/17 13:38:38;;;;;;;0.20;0.20;;;13.40;99.90;;;;;;5120657;28;20031;-67
2021/05/17 13:41:08;;;;;;;0.35;0.20;;;13.90;99.90;;;;;;5121124;28;20026;-67
2021/05/17 13:43:37;;;;;;;3.30;0.25;;;14.50;99.90;;;;;;5121076;28;20019;-67
2021/05/17 13:46:07;;;;;;;0.17;0.17;;;15.30;99.90;;;;;;5103110;28;20020;-67